Time;durP1;ratioP1;P1;durP2;ratioP2;P2;SDS_P1;SDS_P2;PMS_P1;PMS_P2;Temp;Humidity;BMP_temperature;BMP_pressure;BME280_temperature;BME280_humidity;BME280_pressure;Samples;Min_cycle;Max_cycle;Signal;HPM_P1;HPM_P2
2022/12/21 00:01:27;;;;;;;36.38;29.60;;;;;;;8.40;100.00;101008.41;5054636;28;20124;-55
2022/12/21 00:03:55;;;;;;;37.33;29.63;;;;;;;8.40;100.00;101001.31;5051362;28;20050;-54
2022/12/21 00:06:22;;;;;;;36.33;28.23;;;;;;;8.40;100.00;100997.81;5054710;28;20032;-53
2022/12/21 00:08:49;;;;;;;40.42;30.42;;;;;;;8.39;100.00;101004.91;5054169;28;20074;-55
2022/12/21 00:11:15;;;;;;;38.42;29.63;;;;;;;8.38;100.00;101000.56;5041362;28;20028;-55
2022/12/21 00:13:41;;;;;;;37.75;30.38;;;;;;;8.36;100.00;100998.97;5054442;28;20025;-55
2022/12/21 00:16:10;;;;;;;36.55;29.45;;;;;;;8.36;100.00;100993.66;5054076;28;20528;-53
2022/12/21 00:18:38;;;;;;;38.60;30.58;;;;;;;8.36;100.00;101006.91;5054404;28;20574;-55
2022/12/21 00:21:06;;;;;;;37.80;29.33;;;;;;;8.34;100.00;101002.56;5053831;28;20047;-56
2022/12/21 00:23:33;;;;;;;40.70;29.80;;;;;;;8.34;100.00;101001.69;5053201;28;20025;-56
2022/12/21 00:25:59;;;;;;;37.83;29.05;;;;;;;8.34;100.00;101001.69;5053444;28;20120;-54
2022/12/21 00:28:25;;;;;;;38.35;28.90;;;;;;;8.32;100.00;101008.91;5054633;28;20029;-55
2022/12/21 00:30:50;;;;;;;36.88;30.17;;;;;;;8.30;100.00;101006.34;5054069;28;20063;-54
2022/12/21 00:33:16;;;;;;;36.83;28.33;;;;;;;8.28;100.00;101005.59;5053554;28;20033;-53
2022/12/21 00:35:49;;;;;;;36.92;28.83;;;;;;;8.28;100.00;101012.72;5054849;28;20052;-52
2022/12/21 00:38:15;;;;;;;38.83;29.13;;;;;;;8.25;100.00;100997.88;5054090;28;20040;-56
2022/12/21 00:40:41;;;;;;;39.92;30.17;;;;;;;8.26;100.00;100996.94;5053751;28;20033;-54
2022/12/21 00:43:06;;;;;;;39.47;30.83;;;;;;;8.24;100.00;101004.09;5054366;28;20482;-55
2022/12/21 00:45:31;;;;;;;38.97;29.35;;;;;;;8.24;100.00;101009.38;5053874;28;20151;-55
2022/12/21 00:47:56;;;;;;;45.92;33.65;;;;;;;8.24;100.00;101001.44;5053425;28;20055;-55
2022/12/21 00:50:22;;;;;;;44.42;32.85;;;;;;;8.25;100.00;101008.44;5052766;28;20078;-55
2022/12/21 00:52:47;;;;;;;47.42;34.45;;;;;;;8.23;100.00;101013.00;5053677;28;20371;-56
2022/12/21 00:55:12;;;;;;;47.35;33.78;;;;;;;8.24;100.00;101012.03;5053614;28;20033;-55
2022/12/21 00:57:38;;;;;;;47.45;34.58;;;;;;;8.23;100.00;101010.34;5053008;28;20033;-56
2022/12/21 01:00:03;;;;;;;49.38;35.28;;;;;;;8.22;100.00;101016.56;5053227;28;20032;-55
2022/12/21 01:02:29;;;;;;;43.30;33.70;;;;;;;8.20;100.00;101013.19;5053718;28;20128;-56
2022/12/21 01:04:54;;;;;;;47.47;36.08;;;;;;;8.21;100.00;101019.31;5052247;28;20017;-54
2022/12/21 01:07:19;;;;;;;50.92;37.13;;;;;;;8.21;100.00;101019.31;5053300;28;20032;-55
2022/12/21 01:09:45;;;;;;;50.97;34.88;;;;;;;8.20;100.00;101021.13;5047920;28;20048;-54
2022/12/21 01:12:10;;;;;;;48.30;35.38;;;;;;;8.21;100.00;101027.25;5045170;28;20104;-54
2022/12/21 01:14:35;;;;;;;53.63;35.22;;;;;;;8.20;100.00;101029.06;5053259;28;20041;-54
2022/12/21 01:17:01;;;;;;;48.88;36.13;;;;;;;8.20;100.00;101030.88;5053194;28;20102;-55
2022/12/21 01:19:26;;;;;;;52.92;36.55;;;;;;;8.20;100.00;101031.72;5052583;28;20446;-53
2022/12/21 01:21:51;;;;;;;50.15;35.72;;;;;;;8.19;100.00;101032.66;5052588;28;20086;-53
2022/12/21 01:24:17;;;;;;;47.55;34.75;;;;;;;8.17;100.00;101023.97;5053338;28;20103;-52
2022/12/21 01:26:42;;;;;;;47.75;34.58;;;;;;;8.17;100.00;101026.59;5052102;28;20111;-52
2022/12/21 01:29:11;;;;;;;50.90;36.17;;;;;;;8.15;100.00;101017.94;5051788;28;20021;-53
2022/12/21 01:31:36;;;;;;;45.47;32.50;;;;;;;8.15;100.00;101020.56;5052601;28;20380;-53
2022/12/21 01:34:01;;;;;;;49.83;36.03;;;;;;;8.15;100.00;101032.00;5052519;28;20059;-54
2022/12/21 01:36:27;;;;;;;49.50;34.75;;;;;;;8.15;100.00;101039.09;5053065;28;20064;-53
2022/12/21 01:38:52;;;;;;;49.42;35.92;;;;;;;8.14;100.00;101042.66;5053122;28;20455;-53
2022/12/21 01:41:24;;;;;;;53.08;35.67;;;;;;;8.15;100.00;101041.75;5053039;28;20024;-54
2022/12/21 01:43:57;;;;;;;49.97;35.20;;;;;;;8.15;100.00;101055.81;5051814;28;20394;-55
2022/12/21 01:46:34;;;;;;;53.03;35.10;;;;;;;8.13;100.00;101056.88;5052519;28;20033;-55
2022/12/21 01:49:04;;;;;;;50.25;35.42;;;;;;;8.12;100.00;101053.34;5042151;28;20044;-51
2022/12/21 01:51:33;;;;;;;45.00;33.17;;;;;;;8.12;100.00;101052.50;5051830;28;20017;-53
2022/12/21 01:54:05;;;;;;;47.20;35.58;;;;;;;8.10;100.00;101044.66;5052760;28;20078;-54
2022/12/21 01:56:36;;;;;;;46.75;35.25;;;;;;;8.11;100.00;101042.84;5052408;28;20013;-53
2022/12/21 01:59:09;;;;;;;54.65;35.97;;;;;;;8.09;100.00;101035.06;5052015;28;20104;-52
2022/12/21 02:01:35;;;;;;;49.05;35.17;;;;;;;8.08;100.00;101030.69;5052285;28;20116;-55
2022/12/21 02:04:01;;;;;;;51.67;35.90;;;;;;;8.09;100.00;101028.88;5044457;28;20108;-52
2022/12/21 02:06:33;;;;;;;46.05;34.20;;;;;;;8.08;100.00;101027.22;5051432;28;20067;-53
2022/12/21 02:09:00;;;;;;;57.15;36.20;;;;;;;8.07;100.00;101031.63;5052256;28;20386;-55
2022/12/21 02:11:26;;;;;;;50.88;37.30;;;;;;;8.08;100.00;101027.22;5033042;28;20017;-52
2022/12/21 02:13:51;;;;;;;51.20;36.33;;;;;;;8.06;100.00;101029.94;5044786;28;20066;-54
2022/12/21 02:16:41;;;;;;;49.90;36.00;;;;;;;8.09;100.00;101028.88;5039619;28;20042;-52
2022/12/21 02:19:26;;;;;;;55.33;35.65;;;;;;;8.09;100.00;101034.19;5036622;28;20128;-55
2022/12/21 02:22:00;;;;;;;50.63;35.95;;;;;;;8.04;100.00;101030.97;5042575;28;20032;-54
2022/12/21 02:25:07;;;;;;;52.50;37.35;;;;;;;8.06;100.00;101037.00;5042696;28;20483;-53
2022/12/21 02:27:53;;;;;;;51.42;36.15;;;;;;;8.05;100.00;101030.88;5039715;28;20499;-53
2022/12/21 02:30:20;;;;;;;48.05;35.38;;;;;;;8.03;100.00;101031.94;5052049;28;20036;-53
2022/12/21 02:33:10;;;;;;;56.47;35.83;;;;;;;8.06;100.00;101023.78;5044535;28;20030;-53
2022/12/21 02:35:57;;;;;;;50.53;36.50;;;;;;;8.05;100.00;101030.03;5049234;28;20057;-51
2022/12/21 02:38:51;;;;;;;55.97;36.92;;;;;;;8.01;100.00;101025.88;5045981;28;20497;-51
2022/12/21 02:41:19;;;;;;;48.25;36.17;;;;;;;7.99;100.00;101023.31;5051947;28;20025;-51
2022/12/21 02:44:15;;;;;;;55.78;37.38;;;;;;;7.99;100.00;101027.78;5052103;28;20025;-50
2022/12/21 02:46:59;;;;;;;52.60;36.75;;;;;;;7.95;100.00;101022.66;5044518;28;20041;-51
2022/12/21 02:49:56;;;;;;;56.92;37.47;;;;;;;7.95;100.00;101021.84;5047818;28;20029;-51
2022/12/21 02:52:34;;;;;;;58.53;38.90;;;;;;;7.95;100.00;101021.84;5045820;28;20045;-51
2022/12/21 02:55:01;;;;;;;59.22;38.05;;;;;;;7.93;100.00;101018.44;5051867;28;20040;-51
2022/12/21 02:57:37;;;;;;;56.15;37.03;;;;;;;7.93;100.00;101013.16;5051514;28;20028;-51
2022/12/21 03:00:06;;;;;;;57.90;37.95;;;;;;;7.91;100.00;101018.53;5052014;28;20025;-51
2022/12/21 03:06:01;;;;;;;55.28;37.97;;;;;;;7.92;100.00;101020.22;5051533;28;20071;-51
2022/12/21 03:08:42;;;;;;;61.20;39.50;;;;;;;7.91;100.00;101015.03;5050678;28;20029;-53
2022/12/21 03:11:08;;;;;;;60.05;39.13;;;;;;;7.89;100.00;101016.91;5051329;28;20029;-52
2022/12/21 03:13:58;;;;;;;63.72;40.80;;;;;;;7.88;100.00;101015.25;5051591;28;20021;-51
2022/12/21 03:16:44;;;;;;;59.88;40.40;;;;;;;7.88;100.00;101005.50;5051335;28;20157;-54
2022/12/21 03:19:51;;;;;;;58.15;39.67;;;;;;;7.88;100.00;101007.31;5041087;28;20151;-52
2022/12/21 03:22:30;;;;;;;55.58;38.70;;;;;;;7.87;100.00;101009.06;5047343;28;20403;-51
2022/12/21 03:25:07;;;;;;;64.05;39.55;;;;;;;7.87;100.00;101009.06;5035417;28;20473;-52
2022/12/21 03:27:41;;;;;;;63.85;39.97;;;;;;;7.85;100.00;101004.84;5051230;28;20029;-51
2022/12/21 03:30:11;;;;;;;62.85;40.47;;;;;;;7.85;100.00;100995.09;5051671;28;20117;-51
2022/12/21 03:32:57;;;;;;;61.85;39.38;;;;;;;7.86;100.00;100996.81;5051903;28;20035;-54
2022/12/21 03:35:26;;;;;;;55.60;37.35;;;;;;;7.85;100.00;101000.41;5051289;28;20040;-54
2022/12/21 03:37:54;;;;;;;55.55;39.03;;;;;;;7.84;100.00;101011.06;5051273;28;20029;-53
2022/12/21 03:40:25;;;;;;;59.88;39.42;;;;;;;7.84;100.00;101009.25;5051215;28;20029;-54
2022/12/21 03:43:24;;;;;;;61.30;38.67;;;;;;;7.87;100.00;101013.53;5051604;28;20041;-52
2022/12/21 03:45:54;;;;;;;56.53;38.95;;;;;;;7.84;100.00;101006.63;5045174;28;20045;-51
2022/12/21 03:48:27;;;;;;;59.33;38.30;;;;;;;7.83;100.00;101004.06;5051069;28;20390;-52
2022/12/21 03:50:57;;;;;;;56.25;38.40;;;;;;;7.81;100.00;101009.47;5051805;28;20368;-55
2022/12/21 03:53:31;;;;;;;55.40;38.72;;;;;;;7.80;100.00;100999.84;5054272;28;20033;-56
2022/12/21 03:56:01;;;;;;;61.40;38.70;;;;;;;7.78;100.00;101005.22;5052743;28;20025;-55
2022/12/21 03:58:27;;;;;;;56.33;37.70;;;;;;;7.79;100.00;101011.34;5054303;28;20047;-54
2022/12/21 04:01:14;;;;;;;59.22;38.78;;;;;;;7.80;100.00;101010.41;5054796;28;20104;-56
2022/12/21 04:03:42;;;;;;;53.33;36.58;;;;;;;7.77;100.00;101002.66;5040815;28;20044;-55
2022/12/21 04:06:19;;;;;;;55.83;34.83;;;;;;;7.78;100.00;101004.38;5054181;28;20021;-55
2022/12/21 04:08:45;;;;;;;48.55;33.45;;;;;;;7.75;100.00;101001.94;5053759;28;20481;-54
2022/12/21 04:12:36;;;;;;;44.78;32.40;;;;;;;7.72;100.00;100999.47;5045506;28;20480;-55
2022/12/21 04:13:58;;;;;;;43.15;29.77;;;;;;;7.70;100.00;100988.16;5053671;28;20029;-55
2022/12/21 04:16:24;;;;;;;39.85;29.23;;;;;;;7.69;100.00;100989.91;5054546;28;20379;-55
2022/12/21 04:21:33;;;;;;;46.00;29.98;;;;;;;7.66;100.00;101003.34;5054525;28;20078;-53
2022/12/21 04:29:26;;;;;;;39.50;27.67;;;;;;;7.62;100.00;100999.19;5054264;28;20075;-55
2022/12/21 04:31:51;;;;;;;40.72;26.73;;;;;;;7.61;100.00;101000.16;5053702;28;20049;-55
2022/12/21 04:34:16;;;;;;;35.38;25.80;;;;;;;7.60;100.00;101007.19;5054503;28;20032;-54
2022/12/21 04:39:25;;;;;;;31.25;23.73;;;;;;;7.56;100.00;100995.13;5054100;28;20407;-52
2022/12/21 04:41:51;;;;;;;34.10;24.63;;;;;;;7.55;100.00;100989.94;5054189;28;20021;-55
2022/12/21 04:44:16;;;;;;;33.80;24.05;;;;;;;7.52;100.00;100980.41;5052134;28;20467;-54
2022/12/21 04:46:42;;;;;;;32.35;23.30;;;;;;;7.50;100.00;100984.09;5053116;28;20025;-55
2022/12/21 04:49:07;;;;;;;31.85;23.65;;;;;;;7.49;100.00;100985.03;5053781;28;20036;-54
2022/12/21 04:51:33;;;;;;;33.22;23.45;;;;;;;7.49;100.00;100992.94;5053963;28;20021;-55
2022/12/21 04:53:58;;;;;;;33.88;22.95;;;;;;;7.48;100.00;100986.81;5053360;28;20033;-55
2022/12/21 04:56:23;;;;;;;33.80;23.30;;;;;;;7.48;100.00;100984.19;5053634;28;20104;-56
2022/12/21 04:58:49;;;;;;;33.38;22.20;;;;;;;7.48;100.00;100985.97;5053311;28;20086;-52
2022/12/21 05:01:20;;;;;;;36.78;23.27;;;;;;;7.47;100.00;100987.75;5053999;28;20093;-55
2022/12/21 05:03:47;;;;;;;31.20;22.67;;;;;;;7.46;100.00;100978.16;5051529;28;20024;-55
2022/12/21 05:06:13;;;;;;;32.40;22.80;;;;;;;7.46;100.00;100979.91;5053750;28;20063;-55
2022/12/21 05:08:39;;;;;;;30.98;21.95;;;;;;;7.44;100.00;100987.09;5053290;28;20028;-55
2022/12/21 05:11:16;;;;;;;32.83;21.70;;;;;;;7.44;100.00;101000.31;5053017;28;20437;-54
2022/12/21 05:13:43;;;;;;;32.45;21.90;;;;;;;7.39;100.00;100990.88;5053267;28;20032;-55
2022/12/21 05:16:11;;;;;;;34.42;22.40;;;;;;;7.38;100.00;100990.97;5053109;28;20070;-52
2022/12/21 05:18:37;;;;;;;30.30;21.17;;;;;;;7.38;100.00;100988.34;5053018;28;20363;-52
2022/12/21 05:21:03;;;;;;;32.70;21.67;;;;;;;7.35;100.00;100983.22;5053811;28;20021;-54
2022/12/21 05:23:28;;;;;;;28.42;20.40;;;;;;;7.34;100.00;100984.16;5048901;28;20029;-53
2022/12/21 05:25:53;;;;;;;30.92;20.48;;;;;;;7.32;100.00;100981.63;5043511;28;20017;-52
2022/12/21 05:28:19;;;;;;;29.85;20.52;;;;;;;7.32;100.00;100975.50;5052754;28;20071;-53
2022/12/21 05:30:44;;;;;;;29.63;19.35;;;;;;;7.32;100.00;100976.31;5052445;28;20021;-53
2022/12/21 05:33:09;;;;;;;27.88;20.23;;;;;;;7.31;100.00;100984.34;5052943;28;20537;-53
2022/12/21 05:35:39;;;;;;;27.02;18.45;;;;;;;7.31;100.00;100976.41;5053060;28;20116;-52
2022/12/21 05:38:04;;;;;;;27.42;18.27;;;;;;;7.31;100.00;100984.34;5051863;28;20104;-53
2022/12/21 05:40:30;;;;;;;33.33;19.00;;;;;;;7.31;100.00;100981.69;5053117;28;20136;-54
2022/12/21 05:42:55;;;;;;;24.70;17.73;;;;;;;7.30;100.00;100980.03;5052342;28;20158;-54
2022/12/21 05:45:20;;;;;;;38.25;19.77;;;;;;;7.30;100.00;100980.03;5052753;28;20029;-55
2022/12/21 05:47:46;;;;;;;23.10;17.42;;;;;;;7.28;100.00;100989.81;5052530;28;20375;-55
2022/12/21 05:50:11;;;;;;;26.88;18.27;;;;;;;7.27;100.00;100980.19;5052425;28;20086;-54
2022/12/21 05:52:36;;;;;;;27.33;17.45;;;;;;;7.25;100.00;100984.75;5053138;28;20025;-55
2022/12/21 05:55:02;;;;;;;25.90;17.08;;;;;;;7.22;100.00;100968.09;5052921;28;20024;-54
2022/12/21 05:57:27;;;;;;;27.13;16.95;;;;;;;7.19;100.00;100970.97;5051973;28;20029;-55
2022/12/21 05:59:52;;;;;;;25.23;17.60;;;;;;;7.19;100.00;100976.25;5052747;28;20029;-54
2022/12/21 06:02:18;;;;;;;25.63;17.25;;;;;;;7.18;100.00;100974.53;5052803;28;20029;-55
2022/12/21 06:04:43;;;;;;;28.95;16.45;;;;;;;7.16;100.00;100970.28;5052033;28;20083;-56
2022/12/21 06:07:09;;;;;;;24.63;16.10;;;;;;;7.14;100.00;100965.06;5052579;28;20104;-55
2022/12/21 06:09:34;;;;;;;24.25;15.88;;;;;;;7.11;100.00;100961.78;5052597;28;20029;-55
2022/12/21 06:11:59;;;;;;;23.13;15.02;;;;;;;7.09;100.00;100959.22;5051630;28;20433;-55
2022/12/21 06:14:25;;;;;;;24.05;15.40;;;;;;;7.07;100.00;100957.63;5051604;28;20106;-54
2022/12/21 06:16:50;;;;;;;23.65;14.45;;;;;;;7.05;100.00;100963.00;5051553;28;20044;-53
2022/12/21 06:19:15;;;;;;;24.90;14.73;;;;;;;7.01;100.00;100965.00;5052476;28;20117;-55
2022/12/21 06:21:41;;;;;;;23.63;14.15;;;;;;;7.01;100.00;100966.75;5051955;28;20036;-56
2022/12/21 06:24:06;;;;;;;23.05;14.38;;;;;;;7.00;100.00;100968.56;5043145;28;20068;-56
2022/12/21 06:26:31;;;;;;;18.33;13.75;;;;;;;6.98;100.00;100981.00;5047720;28;20029;-53
2022/12/21 06:28:57;;;;;;;21.42;12.85;;;;;;;6.96;100.00;100972.34;5051474;28;20029;-52
2022/12/21 06:31:23;;;;;;;23.83;11.48;;;;;;;6.94;100.00;100971.56;5052150;28;20025;-53
2022/12/21 06:33:48;;;;;;;18.60;11.95;;;;;;;6.92;100.00;100972.59;5052528;28;20593;-52
2022/12/21 06:36:14;;;;;;;21.63;12.35;;;;;;;6.90;100.00;100971.84;5051012;28;20041;-55
2022/12/21 06:38:40;;;;;;;18.98;11.27;;;;;;;6.90;100.00;100971.84;5051477;28;20103;-55
2022/12/21 06:41:08;;;;;;;21.05;11.27;;;;;;;6.87;100.00;100964.94;5047067;28;20086;-54
2022/12/21 06:43:35;;;;;;;16.77;9.60;;;;;;;6.87;100.00;100970.22;5051400;28;20033;-54
2022/12/21 06:46:06;;;;;;;16.63;10.02;;;;;;;6.86;100.00;100971.16;5051700;28;20650;-54
2022/12/21 06:48:33;;;;;;;17.33;9.60;;;;;;;6.87;100.00;100975.50;5051309;28;20413;-55
2022/12/21 06:51:01;;;;;;;20.45;9.63;;;;;;;6.84;100.00;100973.03;5051353;28;20514;-53
2022/12/21 06:53:29;;;;;;;19.25;9.65;;;;;;;6.82;100.00;100974.94;5052283;28;20025;-53
2022/12/21 06:55:59;;;;;;;18.50;9.48;;;;;;;6.79;100.00;100973.31;5051343;28;20083;-55
2022/12/21 06:58:26;;;;;;;18.38;8.80;;;;;;;6.78;100.00;100990.09;5052257;28;20117;-55
2022/12/21 07:00:51;;;;;;;14.85;7.88;;;;;;;6.77;100.00;100998.94;5047428;28;20278;-53
2022/12/21 07:03:16;;;;;;;17.35;8.48;;;;;;;6.76;100.00;100992.00;5035039;28;20459;-53
2022/12/21 07:05:41;;;;;;;17.63;8.77;;;;;;;6.76;100.00;100991.13;5035645;28;20394;-53
2022/12/21 07:08:07;;;;;;;14.32;8.20;;;;;;;6.75;100.00;100997.34;5051314;28;20036;-53
2022/12/21 07:10:32;;;;;;;18.85;8.50;;;;;;;6.73;100.00;100978.09;5051582;28;20017;-56
2022/12/21 07:12:57;;;;;;;18.13;8.02;;;;;;;6.73;100.00;100988.66;5043988;28;20025;-55
2022/12/21 07:15:23;;;;;;;15.45;7.65;;;;;;;6.70;100.00;100992.34;5032633;28;20463;-55
2022/12/21 07:17:48;;;;;;;16.15;7.47;;;;;;;6.70;100.00;100991.50;5030350;28;20072;-55
2022/12/21 07:20:13;;;;;;;17.15;7.78;;;;;;;6.67;100.00;100995.16;5046300;28;20399;-55
2022/12/21 07:22:39;;;;;;;15.65;8.02;;;;;;;6.65;100.00;101003.16;5044788;28;20044;-54
2022/12/21 07:25:05;;;;;;;16.45;7.97;;;;;;;6.63;100.00;101004.19;5047160;28;20049;-54
2022/12/21 07:27:30;;;;;;;19.17;7.38;;;;;;;6.61;100.00;101003.41;5047583;28;20037;-55
2022/12/21 07:29:56;;;;;;;16.27;7.43;;;;;;;6.60;100.00;101009.66;5051519;28;20028;-56
2022/12/21 07:32:21;;;;;;;16.90;7.60;;;;;;;6.58;100.00;101006.25;5052991;28;20090;-55
2022/12/21 07:34:46;;;;;;;17.88;7.40;;;;;;;6.59;100.00;101013.22;5051212;28;20051;-54
2022/12/21 07:37:11;;;;;;;14.90;7.13;;;;;;;6.57;100.00;101020.38;5049028;28;20395;-54
2022/12/21 07:39:37;;;;;;;18.75;7.10;;;;;;;6.57;100.00;101020.38;5044786;28;20033;-55
2022/12/21 07:42:02;;;;;;;15.60;7.22;;;;;;;6.56;100.00;101030.09;5046733;28;20518;-55
2022/12/21 07:44:28;;;;;;;15.65;7.15;;;;;;;6.53;100.00;101030.25;5052386;28;20183;-56
2022/12/21 07:46:53;;;;;;;14.98;7.00;;;;;;;6.54;100.00;101047.78;5045353;28;20044;-56
2022/12/21 07:49:18;;;;;;;17.08;7.35;;;;;;;6.53;100.00;101046.09;5049579;28;20115;-56
2022/12/21 07:51:43;;;;;;;16.52;7.97;;;;;;;6.52;100.00;101054.94;5050271;28;20021;-55
2022/12/21 07:54:09;;;;;;;17.40;7.55;;;;;;;6.53;100.00;101061.06;5047626;28;20033;-56
2022/12/21 07:56:34;;;;;;;15.57;7.72;;;;;;;6.52;100.00;101056.72;5047133;28;20029;-56
2022/12/21 07:59:00;;;;;;;15.43;7.78;;;;;;;6.52;100.00;101057.56;5050788;28;20597;-56
2022/12/21 08:01:26;;;;;;;20.55;8.27;;;;;;;6.52;100.00;101057.56;5050550;28;20047;-56
2022/12/21 08:03:52;;;;;;;21.35;8.75;;;;;;;6.51;100.00;101058.50;5048841;28;20051;-55
2022/12/21 08:06:18;;;;;;;17.90;10.02;;;;;;;6.51;100.00;101055.84;5052737;28;20029;-56
2022/12/21 08:08:44;;;;;;;16.75;9.48;;;;;;;6.50;100.00;101051.53;5051283;28;20048;-55
2022/12/21 08:11:15;;;;;;;21.85;10.05;;;;;;;6.48;100.00;101033.16;5053054;28;20028;-53
2022/12/21 08:13:41;;;;;;;21.08;9.77;;;;;;;6.51;100.00;101031.28;5050045;28;20048;-52
2022/12/21 08:16:09;;;;;;;17.65;9.77;;;;;;;6.50;100.00;101034.88;5048647;28;20055;-54
2022/12/21 08:18:34;;;;;;;15.98;9.98;;;;;;;6.51;100.00;101037.38;5051237;28;20041;-56
2022/12/21 08:21:00;;;;;;;17.35;10.27;;;;;;;6.50;100.00;101045.41;5050146;28;20083;-56
2022/12/21 08:23:26;;;;;;;23.90;10.40;;;;;;;6.51;100.00;101055.84;5049132;28;20114;-52
2022/12/21 08:25:52;;;;;;;22.25;10.40;;;;;;;6.52;100.00;101059.38;5045653;28;20028;-55
2022/12/21 08:28:18;;;;;;;21.13;11.25;;;;;;;6.54;100.00;101053.06;5050187;28;20067;-56
2022/12/21 08:30:43;;;;;;;26.15;11.80;;;;;;;6.55;100.00;101046.84;5050833;28;20116;-55
2022/12/21 08:33:09;;;;;;;22.80;11.63;;;;;;;6.57;100.00;101062.59;5047790;28;20041;-53
2022/12/21 08:35:35;;;;;;;27.15;12.63;;;;;;;6.58;100.00;101059.88;5051377;28;20029;-55
2022/12/21 08:38:00;;;;;;;23.90;13.30;;;;;;;6.60;100.00;101049.22;5047782;28;20040;-56
2022/12/21 08:40:25;;;;;;;31.95;13.18;;;;;;;6.62;100.00;101048.19;5049555;28;20029;-54
2022/12/21 08:42:51;;;;;;;29.58;13.98;;;;;;;6.64;100.00;101042.81;5044364;28;20577;-54
2022/12/21 08:45:16;;;;;;;28.45;13.35;;;;;;;6.65;100.00;101039.25;5032999;28;20078;-52
2022/12/21 08:47:42;;;;;;;37.17;15.75;;;;;;;6.67;100.00;101053.22;5049295;28;20482;-53
2022/12/21 08:50:07;;;;;;;25.48;14.95;;;;;;;6.69;100.00;101050.50;5045766;28;20033;-55
2022/12/21 08:52:33;;;;;;;33.42;15.80;;;;;;;6.69;100.00;101053.97;5042292;28;20467;-54
2022/12/21 08:54:58;;;;;;;31.33;15.85;;;;;;;6.72;100.00;101055.59;5048032;28;20795;-52
2022/12/21 08:57:24;;;;;;;31.50;16.27;;;;;;;6.75;100.00;101052.78;5037164;28;20025;-54
2022/12/21 08:59:50;;;;;;;34.63;18.05;;;;;;;6.74;100.00;101057.19;5037821;28;20056;-52
2022/12/21 09:02:15;;;;;;;32.30;18.67;;;;;;;6.78;100.00;101060.53;5035647;28;20079;-55
2022/12/21 09:04:40;;;;;;;35.97;19.02;;;;;;;6.80;100.00;101066.56;5033536;28;20022;-53
2022/12/21 09:07:06;;;;;;;36.47;20.00;;;;;;;6.81;100.00;101052.41;5036144;28;20060;-55
2022/12/21 09:09:32;;;;;;;36.38;19.55;;;;;;;6.82;100.00;101047.06;5040497;28;20483;-56
2022/12/21 09:11:58;;;;;;;40.00;20.05;;;;;;;6.87;100.00;101048.59;5043656;28;20034;-53
2022/12/21 09:14:23;;;;;;;37.72;20.70;;;;;;;6.88;100.00;101042.34;5040285;28;20021;-52
2022/12/21 09:16:48;;;;;;;36.90;20.58;;;;;;;6.91;100.00;101040.41;5033929;28;20105;-55
2022/12/21 09:19:14;;;;;;;40.08;21.05;;;;;;;6.92;100.00;101036.81;5037570;28;20025;-52
2022/12/21 09:21:39;;;;;;;37.45;20.77;;;;;;;6.96;100.00;101037.47;5031916;28;20080;-52
2022/12/21 09:24:05;;;;;;;35.80;20.35;;;;;;;6.98;100.00;101040.91;5033048;28;20048;-55
2022/12/21 09:26:30;;;;;;;43.25;20.92;;;;;;;6.99;100.00;101042.59;5033013;28;20482;-55
2022/12/21 09:28:55;;;;;;;39.67;20.38;;;;;;;7.01;100.00;101041.56;5038702;28;20029;-52
2022/12/21 09:31:22;;;;;;;39.03;19.95;;;;;;;7.04;100.00;101045.81;5047777;28;20390;-56
2022/12/21 09:33:47;;;;;;;36.47;18.63;;;;;;;7.07;100.00;101048.28;5046823;28;20036;-50
2022/12/21 09:36:13;;;;;;;40.35;19.23;;;;;;;7.12;100.00;101059.41;5047855;28;20017;-52
2022/12/21 09:38:39;;;;;;;32.92;18.50;;;;;;;7.15;100.00;101048.69;5047234;28;20029;-52
2022/12/21 09:41:05;;;;;;;35.15;19.30;;;;;;;7.20;100.00;101062.47;5048777;28;20459;-51
2022/12/21 09:44:10;;;;;;;39.40;20.00;;;;;;;7.28;100.00;101063.78;5049112;28;20494;-53
2022/12/21 09:46:39;;;;;;;38.92;19.88;;;;;;;7.29;100.00;101065.50;5041962;28;20137;-52
2022/12/21 09:49:09;;;;;;;36.92;19.60;;;;;;;7.33;100.00;101077.59;5046585;28;20028;-51
2022/12/21 09:51:36;;;;;;;34.72;18.63;;;;;;;7.33;100.00;101073.16;5044328;28;20047;-51
2022/12/21 09:54:10;;;;;;;34.53;17.90;;;;;;;7.36;100.00;101074.75;5041344;28;20100;-51
2022/12/21 09:56:40;;;;;;;35.25;18.02;;;;;;;7.35;100.00;101068.63;5036110;28;20093;-52
2022/12/21 09:59:11;;;;;;;31.98;18.00;;;;;;;7.37;100.00;101076.47;5035937;28;20523;-51
2022/12/21 10:02:03;;;;;;;33.08;17.83;;;;;;;7.40;100.00;101076.28;5032303;28;20116;-52
2022/12/21 10:05:13;;;;;;;36.38;17.50;;;;;;;7.43;100.00;101078.75;5036931;28;20033;-52
2022/12/21 10:08:25;;;;;;;32.58;16.63;;;;;;;7.44;100.00;101076.94;5045394;28;20506;-51
2022/12/21 10:11:00;;;;;;;33.47;17.35;;;;;;;7.44;100.00;101075.16;5047073;28;20036;-52
2022/12/21 10:13:44;;;;;;;29.90;15.32;;;;;;;7.47;100.00;101072.31;5051848;28;20048;-54
2022/12/21 10:16:47;;;;;;;28.23;16.75;;;;;;;7.49;100.00;101064.31;5051417;28;20048;-52
2022/12/21 10:19:18;;;;;;;29.65;14.70;;;;;;;7.50;100.00;101073.94;5044355;28;20079;-52
2022/12/21 10:21:57;;;;;;;31.23;14.65;;;;;;;7.50;100.00;101093.28;5051606;28;20025;-52
2022/12/21 10:24:28;;;;;;;30.13;15.15;;;;;;;7.53;100.00;101084.34;5047416;28;20029;-53
2022/12/21 10:27:19;;;;;;;27.40;15.30;;;;;;;7.54;100.00;101078.97;5049916;28;20025;-52
2022/12/21 10:29:48;;;;;;;32.22;15.63;;;;;;;7.54;100.00;101076.31;5051853;28;20021;-54
2022/12/21 10:32:14;;;;;;;29.70;15.45;;;;;;;7.54;100.00;101076.31;5051496;28;20505;-52
2022/12/21 10:34:46;;;;;;;36.20;15.40;;;;;;;7.57;100.00;101069.97;5052003;28;20029;-52
2022/12/21 10:37:17;;;;;;;29.48;15.25;;;;;;;7.58;100.00;101066.41;5051873;28;20374;-54
2022/12/21 10:39:43;;;;;;;29.05;14.80;;;;;;;7.61;100.00;101060.94;5051986;28;20045;-51
2022/12/21 10:42:36;;;;;;;29.38;14.70;;;;;;;7.64;100.00;101054.59;5051560;28;20071;-52
2022/12/21 10:45:01;;;;;;;26.95;15.15;;;;;;;7.65;100.00;101048.38;5039129;28;20036;-55
2022/12/21 10:47:26;;;;;;;25.98;14.32;;;;;;;7.66;100.00;101048.28;5051613;28;20025;-53
2022/12/21 10:49:56;;;;;;;27.73;15.05;;;;;;;7.67;100.00;101042.03;5052079;28;20108;-56
2022/12/21 10:52:37;;;;;;;29.50;15.05;;;;;;;7.69;100.00;101034.03;5051924;28;20025;-53
2022/12/21 10:55:19;;;;;;;28.73;14.88;;;;;;;7.67;100.00;101031.47;5051454;28;20025;-55
2022/12/21 10:57:51;;;;;;;29.58;14.18;;;;;;;7.69;100.00;101034.84;5038987;28;20079;-52
2022/12/21 11:00:21;;;;;;;34.03;15.50;;;;;;;7.68;100.00;101034.97;5049111;28;20091;-52
2022/12/21 11:02:47;;;;;;;30.15;15.02;;;;;;;7.69;100.00;101031.38;5042100;28;20025;-55
2022/12/21 11:05:28;;;;;;;31.30;16.13;;;;;;;7.70;100.00;101025.16;5055903;28;20025;-55
2022/12/21 11:08:09;;;;;;;27.08;15.13;;;;;;;7.70;100.00;101025.16;5054743;28;20029;-52
2022/12/21 11:10:35;;;;;;;24.27;14.65;;;;;;;7.72;100.00;101023.25;5055887;28;20459;-52
2022/12/21 11:13:05;;;;;;;25.17;15.13;;;;;;;7.72;100.00;101021.47;5054436;28;20094;-52
2022/12/21 11:15:31;;;;;;;28.02;15.32;;;;;;;7.73;100.00;101024.97;5053406;28;20487;-56
2022/12/21 11:17:56;;;;;;;31.38;15.45;;;;;;;7.74;100.00;101019.59;5035807;28;20045;-51
2022/12/21 11:20:24;;;;;;;30.13;15.27;;;;;;;7.74;100.00;101024.00;5046208;28;20033;-51
2022/12/21 11:22:52;;;;;;;26.50;15.18;;;;;;;7.75;100.00;101020.44;5049211;28;20523;-52
2022/12/21 11:25:20;;;;;;;29.15;15.55;;;;;;;7.75;100.00;101023.06;5045177;28;20029;-52
2022/12/21 11:27:49;;;;;;;30.83;16.10;;;;;;;7.75;100.00;101021.28;5048630;28;20439;-53
2022/12/21 11:30:21;;;;;;;28.15;15.52;;;;;;;7.77;100.00;101024.66;5052921;28;20118;-52
2022/12/21 11:32:49;;;;;;;25.45;14.95;;;;;;;7.77;100.00;101023.81;5049942;28;20048;-54
2022/12/21 11:35:23;;;;;;;32.78;16.92;;;;;;;7.80;100.00;101018.34;5052112;28;20032;-52